sensor_id;sensor_type;location;lat;lon;timestamp;P1;durP1;ratioP1;P2;durP2;ratioP2
45392;SDS011;31129;44.810;10.334;2023-04-25T00:00:37;3.58;;;1.20;;
45392;SDS011;31129;44.810;10.334;2023-04-25T00:03:02;1.80;;;0.85;;
45392;SDS011;31129;44.810;10.334;2023-04-25T00:05:28;2.17;;;1.13;;
45392;SDS011;31129;44.810;10.334;2023-04-25T00:07:54;1.92;;;1.05;;
45392;SDS011;31129;44.810;10.334;2023-04-25T00:10:20;1.38;;;1.02;;
45392;SDS011;31129;44.810;10.334;2023-04-25T00:12:45;4.13;;;1.52;;
45392;SDS011;31129;44.810;10.334;2023-04-25T00:15:11;1.65;;;1.23;;
45392;SDS011;31129;44.810;10.334;2023-04-25T00:17:36;1.80;;;1.17;;
45392;SDS011;31129;44.810;10.334;2023-04-25T00:20:03;2.80;;;1.00;;
45392;SDS011;31129;44.810;10.334;2023-04-25T00:22:36;4.80;;;1.98;;
45392;SDS011;31129;44.810;10.334;2023-04-25T00:25:03;3.92;;;1.25;;
45392;SDS011;31129;44.810;10.334;2023-04-25T00:27:30;1.73;;;1.02;;
45392;SDS011;31129;44.810;10.334;2023-04-25T00:29:55;1.42;;;1.10;;
45392;SDS011;31129;44.810;10.334;2023-04-25T00:32:21;12.55;;;1.33;;
45392;SDS011;31129;44.810;10.334;2023-04-25T00:34:46;2.33;;;1.50;;
45392;SDS011;31129;44.810;10.334;2023-04-25T00:37:11;5.10;;;1.27;;
45392;SDS011;31129;44.810;10.334;2023-04-25T00:39:37;2.97;;;1.25;;
45392;SDS011;31129;44.810;10.334;2023-04-25T00:42:03;2.20;;;1.10;;
45392;SDS011;31129;44.810;10.334;2023-04-25T00:44:29;3.40;;;1.10;;
45392;SDS011;31129;44.810;10.334;2023-04-25T00:46:55;4.50;;;1.48;;
45392;SDS011;31129;44.810;10.334;2023-04-25T00:49:21;2.78;;;1.67;;
45392;SDS011;31129;44.810;10.334;2023-04-25T00:51:46;5.90;;;1.50;;
45392;SDS011;31129;44.810;10.334;2023-04-25T00:54:12;9.27;;;2.10;;
45392;SDS011;31129;44.810;10.334;2023-04-25T00:56:38;2.50;;;1.30;;
45392;SDS011;31129;44.810;10.334;2023-04-25T00:59:04;4.80;;;2.20;;
45392;SDS011;31129;44.810;10.334;2023-04-25T01:01:30;3.92;;;1.45;;
45392;SDS011;31129;44.810;10.334;2023-04-25T01:03:56;3.05;;;1.30;;
45392;SDS011;31129;44.810;10.334;2023-04-25T01:06:26;4.95;;;1.15;;
45392;SDS011;31129;44.810;10.334;2023-04-25T01:08:52;3.58;;;1.40;;
45392;SDS011;31129;44.810;10.334;2023-04-25T01:11:18;4.47;;;1.80;;
45392;SDS011;31129;44.810;10.334;2023-04-25T01:13:43;2.70;;;1.50;;
45392;SDS011;31129;44.810;10.334;2023-04-25T01:16:09;4.40;;;1.33;;
45392;SDS011;31129;44.810;10.334;2023-04-25T01:18:36;3.92;;;1.73;;
45392;SDS011;31129;44.810;10.334;2023-04-25T01:21:25;9.18;;;1.50;;
45392;SDS011;31129;44.810;10.334;2023-04-25T01:23:52;4.13;;;1.75;;
45392;SDS011;31129;44.810;10.334;2023-04-25T01:26:19;3.73;;;1.60;;
45392;SDS011;31129;44.810;10.334;2023-04-25T01:28:46;4.07;;;2.08;;
45392;SDS011;31129;44.810;10.334;2023-04-25T01:31:12;5.28;;;1.75;;
45392;SDS011;31129;44.810;10.334;2023-04-25T01:33:38;2.55;;;1.83;;
45392;SDS011;31129;44.810;10.334;2023-04-25T01:36:06;5.25;;;1.40;;
45392;SDS011;31129;44.810;10.334;2023-04-25T01:38:33;6.30;;;1.83;;
45392;SDS011;31129;44.810;10.334;2023-04-25T01:41:00;10.05;;;1.95;;
45392;SDS011;31129;44.810;10.334;2023-04-25T01:43:26;5.28;;;1.70;;
45392;SDS011;31129;44.810;10.334;2023-04-25T01:45:52;5.75;;;1.77;;
45392;SDS011;31129;44.810;10.334;2023-04-25T01:48:17;6.38;;;1.92;;
45392;SDS011;31129;44.810;10.334;2023-04-25T01:50:45;5.38;;;1.65;;
45392;SDS011;31129;44.810;10.334;2023-04-25T01:53:11;3.28;;;1.80;;
45392;SDS011;31129;44.810;10.334;2023-04-25T01:55:38;4.78;;;2.00;;
45392;SDS011;31129;44.810;10.334;2023-04-25T01:58:11;2.70;;;1.77;;
45392;SDS011;31129;44.810;10.334;2023-04-25T02:00:59;3.25;;;1.67;;
45392;SDS011;31129;44.810;10.334;2023-04-25T02:03:31;3.45;;;1.80;;
45392;SDS011;31129;44.810;10.334;2023-04-25T02:05:58;3.88;;;1.77;;
45392;SDS011;31129;44.810;10.334;2023-04-25T02:08:24;3.80;;;2.08;;
45392;SDS011;31129;44.810;10.334;2023-04-25T02:10:53;3.15;;;1.80;;
45392;SDS011;31129;44.810;10.334;2023-04-25T02:13:19;4.97;;;2.60;;
45392;SDS011;31129;44.810;10.334;2023-04-25T02:15:56;4.53;;;2.50;;
45392;SDS011;31129;44.810;10.334;2023-04-25T02:18:22;9.68;;;2.80;;
45392;SDS011;31129;44.810;10.334;2023-04-25T02:20:48;3.03;;;1.90;;
45392;SDS011;31129;44.810;10.334;2023-04-25T02:23:13;6.88;;;2.30;;
45392;SDS011;31129;44.810;10.334;2023-04-25T02:25:40;3.13;;;1.83;;
45392;SDS011;31129;44.810;10.334;2023-04-25T02:28:06;7.75;;;2.00;;
45392;SDS011;31129;44.810;10.334;2023-04-25T02:30:32;8.75;;;2.33;;
45392;SDS011;31129;44.810;10.334;2023-04-25T02:32:57;3.88;;;2.10;;
45392;SDS011;31129;44.810;10.334;2023-04-25T02:35:24;6.15;;;2.20;;
45392;SDS011;31129;44.810;10.334;2023-04-25T02:37:51;4.13;;;1.98;;
45392;SDS011;31129;44.810;10.334;2023-04-25T02:40:17;7.97;;;2.40;;
45392;SDS011;31129;44.810;10.334;2023-04-25T02:42:42;2.38;;;2.00;;
45392;SDS011;31129;44.810;10.334;2023-04-25T02:45:08;4.15;;;2.55;;
45392;SDS011;31129;44.810;10.334;2023-04-25T02:47:34;5.63;;;2.03;;
45392;SDS011;31129;44.810;10.334;2023-04-25T02:49:59;5.15;;;2.13;;
45392;SDS011;31129;44.810;10.334;2023-04-25T02:52:25;4.30;;;2.13;;
45392;SDS011;31129;44.810;10.334;2023-04-25T02:54:58;3.25;;;2.17;;
45392;SDS011;31129;44.810;10.334;2023-04-25T02:57:24;6.93;;;2.40;;
45392;SDS011;31129;44.810;10.334;2023-04-25T02:59:50;6.60;;;2.00;;
45392;SDS011;31129;44.810;10.334;2023-04-25T03:02:15;9.88;;;3.25;;
45392;SDS011;31129;44.810;10.334;2023-04-25T03:04:40;5.40;;;2.35;;
45392;SDS011;31129;44.810;10.334;2023-04-25T03:07:06;6.93;;;2.30;;
45392;SDS011;31129;44.810;10.334;2023-04-25T03:09:32;6.22;;;2.35;;
45392;SDS011;31129;44.810;10.334;2023-04-25T03:11:57;3.97;;;2.30;;
45392;SDS011;31129;44.810;10.334;2023-04-25T03:14:23;3.55;;;2.50;;
45392;SDS011;31129;44.810;10.334;2023-04-25T03:16:48;6.10;;;2.38;;
45392;SDS011;31129;44.810;10.334;2023-04-25T03:19:16;4.65;;;2.60;;
45392;SDS011;31129;44.810;10.334;2023-04-25T03:21:42;6.47;;;2.75;;
45392;SDS011;31129;44.810;10.334;2023-04-25T03:24:07;3.05;;;2.28;;
45392;SDS011;31129;44.810;10.334;2023-04-25T03:26:33;6.10;;;2.63;;
45392;SDS011;31129;44.810;10.334;2023-04-25T03:28:58;4.88;;;2.63;;
45392;SDS011;31129;44.810;10.334;2023-04-25T03:31:24;10.60;;;2.50;;
45392;SDS011;31129;44.810;10.334;2023-04-25T03:33:50;11.45;;;2.55;;
45392;SDS011;31129;44.810;10.334;2023-04-25T03:36:17;4.05;;;2.22;;
45392;SDS011;31129;44.810;10.334;2023-04-25T03:38:42;3.63;;;2.35;;
45392;SDS011;31129;44.810;10.334;2023-04-25T03:41:09;5.45;;;2.03;;
45392;SDS011;31129;44.810;10.334;2023-04-25T03:43:39;3.90;;;2.58;;
45392;SDS011;31129;44.810;10.334;2023-04-25T03:46:09;3.72;;;1.90;;
45392;SDS011;31129;44.810;10.334;2023-04-25T03:48:35;7.07;;;2.38;;
45392;SDS011;31129;44.810;10.334;2023-04-25T03:51:00;6.93;;;2.75;;
45392;SDS011;31129;44.810;10.334;2023-04-25T03:53:26;6.68;;;3.53;;
45392;SDS011;31129;44.810;10.334;2023-04-25T03:56:12;11.70;;;2.55;;
45392;SDS011;31129;44.810;10.334;2023-04-25T03:58:38;4.65;;;2.25;;
45392;SDS011;31129;44.810;10.334;2023-04-25T04:01:05;4.07;;;2.50;;
45392;SDS011;31129;44.810;10.334;2023-04-25T04:03:34;2.78;;;2.10;;
45392;SDS011;31129;44.810;10.334;2023-04-25T04:06:03;4.55;;;2.40;;
45392;SDS011;31129;44.810;10.334;2023-04-25T04:08:32;5.78;;;2.30;;
45392;SDS011;31129;44.810;10.334;2023-04-25T04:10:58;4.72;;;2.60;;
45392;SDS011;31129;44.810;10.334;2023-04-25T04:13:28;7.47;;;2.60;;
45392;SDS011;31129;44.810;10.334;2023-04-25T04:15:53;4.47;;;2.60;;
45392;SDS011;31129;44.810;10.334;2023-04-25T04:18:20;5.80;;;2.72;;
45392;SDS011;31129;44.810;10.334;2023-04-25T04:20:46;4.55;;;2.72;;
45392;SDS011;31129;44.810;10.334;2023-04-25T04:23:11;4.35;;;2.90;;
45392;SDS011;31129;44.810;10.334;2023-04-25T04:25:37;4.38;;;3.25;;
45392;SDS011;31129;44.810;10.334;2023-04-25T04:28:28;3.83;;;2.78;;
45392;SDS011;31129;44.810;10.334;2023-04-25T04:31:00;3.95;;;2.75;;
45392;SDS011;31129;44.810;10.334;2023-04-25T04:33:28;5.43;;;3.08;;
45392;SDS011;31129;44.810;10.334;2023-04-25T04:35:57;5.63;;;3.33;;
45392;SDS011;31129;44.810;10.334;2023-04-25T04:38:23;6.90;;;3.15;;
45392;SDS011;31129;44.810;10.334;2023-04-25T04:40:50;8.18;;;3.25;;
45392;SDS011;31129;44.810;10.334;2023-04-25T04:43:43;3.85;;;3.30;;
45392;SDS011;31129;44.810;10.334;2023-04-25T04:46:27;5.05;;;3.28;;
45392;SDS011;31129;44.810;10.334;2023-04-25T04:49:10;3.97;;;3.10;;
45392;SDS011;31129;44.810;10.334;2023-04-25T04:51:54;3.70;;;3.20;;
45392;SDS011;31129;44.810;10.334;2023-04-25T04:54:35;5.57;;;3.40;;
45392;SDS011;31129;44.810;10.334;2023-04-25T04:57:12;6.30;;;3.27;;
45392;SDS011;31129;44.810;10.334;2023-04-25T05:00:10;6.07;;;3.80;;
45392;SDS011;31129;44.810;10.334;2023-04-25T05:02:49;6.85;;;3.53;;
45392;SDS011;31129;44.810;10.334;2023-04-25T05:05:27;7.57;;;3.30;;
45392;SDS011;31129;44.810;10.334;2023-04-25T05:08:12;5.28;;;3.20;;
45392;SDS011;31129;44.810;10.334;2023-04-25T05:10:56;3.40;;;3.05;;
45392;SDS011;31129;44.810;10.334;2023-04-25T05:13:32;5.28;;;3.35;;
45392;SDS011;31129;44.810;10.334;2023-04-25T05:15:57;5.90;;;3.40;;
45392;SDS011;31129;44.810;10.334;2023-04-25T05:18:44;7.18;;;3.42;;
45392;SDS011;31129;44.810;10.334;2023-04-25T05:21:25;4.40;;;3.95;;
45392;SDS011;31129;44.810;10.334;2023-04-25T05:24:12;6.63;;;4.47;;
45392;SDS011;31129;44.810;10.334;2023-04-25T05:27:00;4.22;;;2.92;;
45392;SDS011;31129;44.810;10.334;2023-04-25T05:30:05;9.60;;;3.45;;
45392;SDS011;31129;44.810;10.334;2023-04-25T05:32:45;10.18;;;3.80;;
45392;SDS011;31129;44.810;10.334;2023-04-25T05:35:12;7.57;;;3.55;;
45392;SDS011;31129;44.810;10.334;2023-04-25T05:37:44;5.20;;;3.95;;
45392;SDS011;31129;44.810;10.334;2023-04-25T05:40:12;9.77;;;4.00;;
45392;SDS011;31129;44.810;10.334;2023-04-25T05:42:43;10.18;;;4.28;;
45392;SDS011;31129;44.810;10.334;2023-04-25T05:45:24;6.13;;;3.38;;
45392;SDS011;31129;44.810;10.334;2023-04-25T05:48:25;7.28;;;3.83;;
45392;SDS011;31129;44.810;10.334;2023-04-25T05:51:07;9.45;;;4.45;;
45392;SDS011;31129;44.810;10.334;2023-04-25T05:53:51;4.88;;;3.95;;
45392;SDS011;31129;44.810;10.334;2023-04-25T05:56:17;10.23;;;4.65;;
45392;SDS011;31129;44.810;10.334;2023-04-25T05:58:44;5.90;;;3.67;;
45392;SDS011;31129;44.810;10.334;2023-04-25T06:01:11;8.52;;;4.63;;
45392;SDS011;31129;44.810;10.334;2023-04-25T06:03:37;5.43;;;4.00;;
45392;SDS011;31129;44.810;10.334;2023-04-25T06:06:06;7.28;;;4.18;;
45392;SDS011;31129;44.810;10.334;2023-04-25T06:08:32;6.05;;;4.25;;
45392;SDS011;31129;44.810;10.334;2023-04-25T06:10:57;5.30;;;4.10;;
45392;SDS011;31129;44.810;10.334;2023-04-25T06:13:26;7.22;;;4.45;;
45392;SDS011;31129;44.810;10.334;2023-04-25T06:15:51;5.07;;;4.25;;
45392;SDS011;31129;44.810;10.334;2023-04-25T06:18:17;7.15;;;5.28;;
45392;SDS011;31129;44.810;10.334;2023-04-25T06:20:42;9.32;;;4.88;;
45392;SDS011;31129;44.810;10.334;2023-04-25T06:23:10;7.32;;;4.30;;
45392;SDS011;31129;44.810;10.334;2023-04-25T06:25:49;6.40;;;4.22;;
45392;SDS011;31129;44.810;10.334;2023-04-25T06:28:14;6.25;;;4.57;;
45392;SDS011;31129;44.810;10.334;2023-04-25T06:30:42;6.88;;;4.20;;
45392;SDS011;31129;44.810;10.334;2023-04-25T06:33:11;5.47;;;4.10;;
45392;SDS011;31129;44.810;10.334;2023-04-25T06:35:38;6.15;;;4.15;;
45392;SDS011;31129;44.810;10.334;2023-04-25T06:38:04;7.15;;;4.22;;
45392;SDS011;31129;44.810;10.334;2023-04-25T06:40:30;5.72;;;3.83;;
45392;SDS011;31129;44.810;10.334;2023-04-25T06:42:56;5.30;;;4.30;;
45392;SDS011;31129;44.810;10.334;2023-04-25T06:45:40;6.47;;;3.80;;
45392;SDS011;31129;44.810;10.334;2023-04-25T06:48:07;10.82;;;4.05;;
45392;SDS011;31129;44.810;10.334;2023-04-25T06:50:33;7.35;;;3.88;;
45392;SDS011;31129;44.810;10.334;2023-04-25T06:52:59;6.35;;;3.75;;
45392;SDS011;31129;44.810;10.334;2023-04-25T06:58:10;7.45;;;3.80;;
45392;SDS011;31129;44.810;10.334;2023-04-25T07:00:52;6.80;;;3.47;;
45392;SDS011;31129;44.810;10.334;2023-04-25T07:03:19;5.30;;;3.42;;
45392;SDS011;31129;44.810;10.334;2023-04-25T07:05:45;6.95;;;4.07;;
45392;SDS011;31129;44.810;10.334;2023-04-25T07:08:11;5.90;;;3.65;;
45392;SDS011;31129;44.810;10.334;2023-04-25T07:10:36;5.60;;;3.60;;
45392;SDS011;31129;44.810;10.334;2023-04-25T07:13:02;10.00;;;3.45;;
45392;SDS011;31129;44.810;10.334;2023-04-25T07:17:57;6.00;;;3.28;;
45392;SDS011;31129;44.810;10.334;2023-04-25T07:20:22;7.47;;;3.67;;
45392;SDS011;31129;44.810;10.334;2023-04-25T07:22:52;14.80;;;4.15;;
45392;SDS011;31129;44.810;10.334;2023-04-25T07:25:18;6.80;;;4.22;;
45392;SDS011;31129;44.810;10.334;2023-04-25T07:27:44;8.25;;;4.05;;
45392;SDS011;31129;44.810;10.334;2023-04-25T07:30:13;6.68;;;3.88;;
45392;SDS011;31129;44.810;10.334;2023-04-25T07:32:39;11.50;;;3.78;;
45392;SDS011;31129;44.810;10.334;2023-04-25T07:35:04;6.07;;;4.10;;
45392;SDS011;31129;44.810;10.334;2023-04-25T07:37:32;9.60;;;4.15;;
45392;SDS011;31129;44.810;10.334;2023-04-25T07:40:18;7.78;;;3.88;;
45392;SDS011;31129;44.810;10.334;2023-04-25T07:42:51;6.05;;;4.55;;
45392;SDS011;31129;44.810;10.334;2023-04-25T07:45:23;7.13;;;3.55;;
45392;SDS011;31129;44.810;10.334;2023-04-25T07:47:49;6.68;;;3.67;;
45392;SDS011;31129;44.810;10.334;2023-04-25T07:50:15;6.45;;;4.13;;
45392;SDS011;31129;44.810;10.334;2023-04-25T07:52:41;15.75;;;4.97;;
45392;SDS011;31129;44.810;10.334;2023-04-25T07:55:16;9.20;;;3.95;;
45392;SDS011;31129;44.810;10.334;2023-04-25T07:58:00;16.52;;;4.28;;
45392;SDS011;31129;44.810;10.334;2023-04-25T08:00:28;13.23;;;4.40;;
45392;SDS011;31129;44.810;10.334;2023-04-25T08:03:12;5.47;;;3.90;;
45392;SDS011;31129;44.810;10.334;2023-04-25T08:05:37;4.45;;;3.28;;
45392;SDS011;31129;44.810;10.334;2023-04-25T08:08:05;3.88;;;2.38;;
45392;SDS011;31129;44.810;10.334;2023-04-25T08:10:32;5.50;;;2.33;;
45392;SDS011;31129;44.810;10.334;2023-04-25T08:12:58;3.75;;;1.85;;
45392;SDS011;31129;44.810;10.334;2023-04-25T08:15:24;1.25;;;1.00;;
45392;SDS011;31129;44.810;10.334;2023-04-25T08:17:50;1.20;;;0.73;;
45392;SDS011;31129;44.810;10.334;2023-04-25T08:20:16;3.22;;;0.52;;
45392;SDS011;31129;44.810;10.334;2023-04-25T08:22:42;1.95;;;0.80;;
45392;SDS011;31129;44.810;10.334;2023-04-25T08:25:21;0.73;;;0.60;;
45392;SDS011;31129;44.810;10.334;2023-04-25T08:27:47;0.50;;;0.50;;
45392;SDS011;31129;44.810;10.334;2023-04-25T08:30:12;1.63;;;0.88;;
45392;SDS011;31129;44.810;10.334;2023-04-25T08:32:39;0.77;;;0.57;;
45392;SDS011;31129;44.810;10.334;2023-04-25T08:35:28;2.05;;;0.50;;
45392;SDS011;31129;44.810;10.334;2023-04-25T08:37:54;1.48;;;0.43;;
45392;SDS011;31129;44.810;10.334;2023-04-25T08:40:19;0.47;;;0.30;;
45392;SDS011;31129;44.810;10.334;2023-04-25T08:43:01;1.77;;;0.52;;
45392;SDS011;31129;44.810;10.334;2023-04-25T08:45:30;0.98;;;0.40;;
45392;SDS011;31129;44.810;10.334;2023-04-25T08:47:57;0.40;;;0.40;;
45392;SDS011;31129;44.810;10.334;2023-04-25T08:50:24;0.73;;;0.50;;
45392;SDS011;31129;44.810;10.334;2023-04-25T08:52:53;2.85;;;0.70;;
45392;SDS011;31129;44.810;10.334;2023-04-25T08:55:20;3.65;;;0.50;;
45392;SDS011;31129;44.810;10.334;2023-04-25T08:57:49;2.08;;;0.60;;
45392;SDS011;31129;44.810;10.334;2023-04-25T09:00:15;0.82;;;0.50;;
45392;SDS011;31129;44.810;10.334;2023-04-25T09:02:43;4.05;;;0.70;;
45392;SDS011;31129;44.810;10.334;2023-04-25T09:05:09;1.13;;;0.40;;
45392;SDS011;31129;44.810;10.334;2023-04-25T09:07:37;0.38;;;0.30;;
45392;SDS011;31129;44.810;10.334;2023-04-25T09:10:03;1.33;;;0.50;;
45392;SDS011;31129;44.810;10.334;2023-04-25T09:12:32;0.47;;;0.40;;
45392;SDS011;31129;44.810;10.334;2023-04-25T09:17:57;4.15;;;0.43;;
45392;SDS011;31129;44.810;10.334;2023-04-25T09:20:28;0.65;;;0.40;;
45392;SDS011;31129;44.810;10.334;2023-04-25T09:23:04;0.45;;;0.40;;
45392;SDS011;31129;44.810;10.334;2023-04-25T09:25:36;2.70;;;0.70;;
45392;SDS011;31129;44.810;10.334;2023-04-25T09:28:06;2.25;;;0.50;;
45392;SDS011;31129;44.810;10.334;2023-04-25T09:30:33;1.83;;;0.40;;
45392;SDS011;31129;44.810;10.334;2023-04-25T09:33:07;1.00;;;0.52;;
45392;SDS011;31129;44.810;10.334;2023-04-25T09:35:38;3.20;;;0.40;;
45392;SDS011;31129;44.810;10.334;2023-04-25T09:38:08;0.65;;;0.50;;
45392;SDS011;31129;44.810;10.334;2023-04-25T09:40:55;0.73;;;0.40;;
45392;SDS011;31129;44.810;10.334;2023-04-25T09:43:33;0.77;;;0.50;;
45392;SDS011;31129;44.810;10.334;2023-04-25T09:45:59;0.47;;;0.30;;
45392;SDS011;31129;44.810;10.334;2023-04-25T09:48:27;0.75;;;0.55;;
45392;SDS011;31129;44.810;10.334;2023-04-25T09:51:07;3.63;;;0.50;;
45392;SDS011;31129;44.810;10.334;2023-04-25T10:08:30;1.35;;;0.30;;
45392;SDS011;31129;44.810;10.334;2023-04-25T10:32:03;2.67;;;0.70;;
45392;SDS011;31129;44.810;10.334;2023-04-25T10:38:20;1.52;;;0.98;;
45392;SDS011;31129;44.810;10.334;2023-04-25T10:45:12;4.55;;;0.93;;
45392;SDS011;31129;44.810;10.334;2023-04-25T10:54:02;3.75;;;1.20;;
45392;SDS011;31129;44.810;10.334;2023-04-25T11:00:23;3.15;;;1.52;;
45392;SDS011;31129;44.810;10.334;2023-04-25T11:03:02;2.85;;;1.45;;
45392;SDS011;31129;44.810;10.334;2023-04-25T11:05:34;2.95;;;1.30;;
45392;SDS011;31129;44.810;10.334;2023-04-25T11:11:53;2.42;;;1.27;;
45392;SDS011;31129;44.810;10.334;2023-04-25T11:14:33;3.83;;;1.33;;
45392;SDS011;31129;44.810;10.334;2023-04-25T11:17:05;5.60;;;1.42;;
45392;SDS011;31129;44.810;10.334;2023-04-25T11:20:10;4.63;;;1.40;;
45392;SDS011;31129;44.810;10.334;2023-04-25T11:26:05;2.03;;;1.33;;
45392;SDS011;31129;44.810;10.334;2023-04-25T11:31:50;2.10;;;1.60;;
45392;SDS011;31129;44.810;10.334;2023-04-25T11:37:57;4.50;;;1.45;;
45392;SDS011;31129;44.810;10.334;2023-04-25T11:40:32;4.20;;;1.58;;
45392;SDS011;31129;44.810;10.334;2023-04-25T11:43:04;3.10;;;1.50;;
45392;SDS011;31129;44.810;10.334;2023-04-25T11:45:30;3.63;;;1.73;;
45392;SDS011;31129;44.810;10.334;2023-04-25T11:48:20;3.13;;;1.40;;
45392;SDS011;31129;44.810;10.334;2023-04-25T11:51:51;4.53;;;1.80;;
45392;SDS011;31129;44.810;10.334;2023-04-25T11:54:30;5.55;;;1.77;;
45392;SDS011;31129;44.810;10.334;2023-04-25T12:10:36;4.07;;;1.50;;
45392;SDS011;31129;44.810;10.334;2023-04-25T12:14:27;3.80;;;1.30;;
45392;SDS011;31129;44.810;10.334;2023-04-25T12:17:03;2.45;;;1.02;;
45392;SDS011;31129;44.810;10.334;2023-04-25T12:19:38;1.80;;;1.00;;
45392;SDS011;31129;44.810;10.334;2023-04-25T12:22:28;6.07;;;1.17;;
45392;SDS011;31129;44.810;10.334;2023-04-25T12:24:57;3.00;;;1.35;;
45392;SDS011;31129;44.810;10.334;2023-04-25T12:35:14;4.47;;;1.65;;
45392;SDS011;31129;44.810;10.334;2023-04-25T12:38:00;2.67;;;1.20;;
45392;SDS011;31129;44.810;10.334;2023-04-25T12:40:26;2.97;;;1.30;;
45392;SDS011;31129;44.810;10.334;2023-04-25T12:51:17;4.28;;;1.20;;
45392;SDS011;31129;44.810;10.334;2023-04-25T12:53:48;3.15;;;1.10;;
45392;SDS011;31129;44.810;10.334;2023-04-25T12:56:20;2.42;;;1.17;;
45392;SDS011;31129;44.810;10.334;2023-04-25T12:59:38;1.70;;;1.27;;
45392;SDS011;31129;44.810;10.334;2023-04-25T13:02:12;1.48;;;1.10;;
45392;SDS011;31129;44.810;10.334;2023-04-25T13:05:17;2.20;;;1.23;;
45392;SDS011;31129;44.810;10.334;2023-04-25T13:11:12;1.75;;;1.65;;
45392;SDS011;31129;44.810;10.334;2023-04-25T13:17:23;2.25;;;1.30;;
45392;SDS011;31129;44.810;10.334;2023-04-25T13:23:05;2.00;;;1.08;;
45392;SDS011;31129;44.810;10.334;2023-04-25T13:28:35;4.45;;;1.38;;
45392;SDS011;31129;44.810;10.334;2023-04-25T13:34:38;3.13;;;1.25;;
45392;SDS011;31129;44.810;10.334;2023-04-25T13:37:39;2.03;;;1.40;;
45392;SDS011;31129;44.810;10.334;2023-04-25T13:46:19;1.88;;;1.33;;
45392;SDS011;31129;44.810;10.334;2023-04-25T13:53:00;4.90;;;1.13;;
45392;SDS011;31129;44.810;10.334;2023-04-25T13:56:27;1.60;;;1.17;;
45392;SDS011;31129;44.810;10.334;2023-04-25T13:58:56;2.05;;;0.90;;
45392;SDS011;31129;44.810;10.334;2023-04-25T14:04:40;2.53;;;1.17;;
45392;SDS011;31129;44.810;10.334;2023-04-25T14:13:45;1.27;;;0.80;;
45392;SDS011;31129;44.810;10.334;2023-04-25T14:16:23;1.20;;;0.98;;
45392;SDS011;31129;44.810;10.334;2023-04-25T14:19:18;1.75;;;1.20;;
45392;SDS011;31129;44.810;10.334;2023-04-25T14:24:30;2.80;;;1.02;;
45392;SDS011;31129;44.810;10.334;2023-04-25T14:27:13;1.48;;;0.90;;
45392;SDS011;31129;44.810;10.334;2023-04-25T14:30:22;5.38;;;1.27;;
45392;SDS011;31129;44.810;10.334;2023-04-25T14:32:49;4.60;;;1.40;;
45392;SDS011;31129;44.810;10.334;2023-04-25T14:35:17;4.57;;;1.02;;
45392;SDS011;31129;44.810;10.334;2023-04-25T14:38:01;1.58;;;0.80;;
45392;SDS011;31129;44.810;10.334;2023-04-25T14:40:26;5.13;;;0.75;;
45392;SDS011;31129;44.810;10.334;2023-04-25T14:43:04;4.82;;;0.93;;
45392;SDS011;31129;44.810;10.334;2023-04-25T14:45:29;4.28;;;1.10;;
45392;SDS011;31129;44.810;10.334;2023-04-25T14:48:10;1.77;;;0.70;;
45392;SDS011;31129;44.810;10.334;2023-04-25T14:50:36;3.25;;;1.40;;
45392;SDS011;31129;44.810;10.334;2023-04-25T14:53:06;2.38;;;1.60;;
45392;SDS011;31129;44.810;10.334;2023-04-25T14:55:40;1.40;;;1.30;;
45392;SDS011;31129;44.810;10.334;2023-04-25T14:58:05;3.10;;;1.40;;
45392;SDS011;31129;44.810;10.334;2023-04-25T15:00:33;2.70;;;1.10;;
45392;SDS011;31129;44.810;10.334;2023-04-25T15:03:16;2.15;;;1.10;;
45392;SDS011;31129;44.810;10.334;2023-04-25T15:05:59;2.17;;;1.27;;
45392;SDS011;31129;44.810;10.334;2023-04-25T15:08:55;1.33;;;1.23;;
45392;SDS011;31129;44.810;10.334;2023-04-25T15:11:56;1.73;;;1.25;;
45392;SDS011;31129;44.810;10.334;2023-04-25T15:14:30;3.33;;;1.17;;
45392;SDS011;31129;44.810;10.334;2023-04-25T15:17:04;3.40;;;1.23;;
45392;SDS011;31129;44.810;10.334;2023-04-25T15:19:32;1.77;;;1.15;;
45392;SDS011;31129;44.810;10.334;2023-04-25T15:22:00;5.07;;;1.20;;
45392;SDS011;31129;44.810;10.334;2023-04-25T15:24:28;3.90;;;1.10;;
45392;SDS011;31129;44.810;10.334;2023-04-25T15:26:56;3.72;;;1.08;;
45392;SDS011;31129;44.810;10.334;2023-04-25T15:29:23;3.63;;;1.30;;
45392;SDS011;31129;44.810;10.334;2023-04-25T15:31:49;1.25;;;1.00;;
45392;SDS011;31129;44.810;10.334;2023-04-25T15:34:20;4.70;;;0.82;;
45392;SDS011;31129;44.810;10.334;2023-04-25T15:36:46;3.65;;;0.93;;
45392;SDS011;31129;44.810;10.334;2023-04-25T15:39:11;5.50;;;1.30;;
45392;SDS011;31129;44.810;10.334;2023-04-25T15:41:37;2.00;;;0.82;;
45392;SDS011;31129;44.810;10.334;2023-04-25T15:44:10;6.43;;;1.35;;
45392;SDS011;31129;44.810;10.334;2023-04-25T15:46:36;4.50;;;0.98;;
45392;SDS011;31129;44.810;10.334;2023-04-25T15:49:01;7.43;;;0.90;;
45392;SDS011;31129;44.810;10.334;2023-04-25T15:51:30;4.72;;;1.00;;
45392;SDS011;31129;44.810;10.334;2023-04-25T15:53:56;6.65;;;1.75;;
45392;SDS011;31129;44.810;10.334;2023-04-25T15:56:23;3.30;;;0.70;;
45392;SDS011;31129;44.810;10.334;2023-04-25T15:58:49;4.50;;;0.98;;
45392;SDS011;31129;44.810;10.334;2023-04-25T16:01:15;7.88;;;0.98;;
45392;SDS011;31129;44.810;10.334;2023-04-25T16:03:41;4.43;;;0.77;;
45392;SDS011;31129;44.810;10.334;2023-04-25T16:08:42;2.75;;;0.80;;
45392;SDS011;31129;44.810;10.334;2023-04-25T16:11:11;3.33;;;0.77;;
45392;SDS011;31129;44.810;10.334;2023-04-25T16:13:41;8.38;;;1.42;;
45392;SDS011;31129;44.810;10.334;2023-04-25T16:16:07;4.63;;;0.73;;
45392;SDS011;31129;44.810;10.334;2023-04-25T16:21:01;3.53;;;0.90;;
45392;SDS011;31129;44.810;10.334;2023-04-25T16:23:27;3.65;;;0.98;;
45392;SDS011;31129;44.810;10.334;2023-04-25T16:25:52;2.58;;;0.82;;
45392;SDS011;31129;44.810;10.334;2023-04-25T16:28:19;3.45;;;0.80;;
45392;SDS011;31129;44.810;10.334;2023-04-25T16:30:44;1.65;;;0.80;;
45392;SDS011;31129;44.810;10.334;2023-04-25T16:33:10;3.22;;;0.98;;
45392;SDS011;31129;44.810;10.334;2023-04-25T16:35:36;1.58;;;0.70;;
45392;SDS011;31129;44.810;10.334;2023-04-25T16:38:02;4.00;;;0.68;;
45392;SDS011;31129;44.810;10.334;2023-04-25T16:40:31;2.83;;;0.60;;
45392;SDS011;31129;44.810;10.334;2023-04-25T16:42:56;0.70;;;0.68;;
45392;SDS011;31129;44.810;10.334;2023-04-25T16:45:31;2.00;;;0.55;;
45392;SDS011;31129;44.810;10.334;2023-04-25T16:47:57;3.67;;;0.80;;
45392;SDS011;31129;44.810;10.334;2023-04-25T16:53:41;2.25;;;0.65;;
45392;SDS011;31129;44.810;10.334;2023-04-25T16:57:31;2.42;;;0.65;;
45392;SDS011;31129;44.810;10.334;2023-04-25T17:03:21;3.17;;;0.70;;
45392;SDS011;31129;44.810;10.334;2023-04-25T17:12:44;2.58;;;0.75;;
45392;SDS011;31129;44.810;10.334;2023-04-25T17:15:50;4.20;;;0.88;;
45392;SDS011;31129;44.810;10.334;2023-04-25T17:18:21;6.13;;;1.25;;
45392;SDS011;31129;44.810;10.334;2023-04-25T17:28:17;1.70;;;0.70;;
45392;SDS011;31129;44.810;10.334;2023-04-25T17:39:03;4.85;;;1.20;;
45392;SDS011;31129;44.810;10.334;2023-04-25T17:45:29;2.13;;;0.70;;
45392;SDS011;31129;44.810;10.334;2023-04-25T17:48:47;1.17;;;0.90;;
45392;SDS011;31129;44.810;10.334;2023-04-25T17:51:59;1.73;;;0.80;;
45392;SDS011;31129;44.810;10.334;2023-04-25T17:54:12;4.07;;;0.82;;
45392;SDS011;31129;44.810;10.334;2023-04-25T18:00:04;2.92;;;1.02;;
45392;SDS011;31129;44.810;10.334;2023-04-25T18:03:32;1.02;;;0.70;;
45392;SDS011;31129;44.810;10.334;2023-04-25T18:06:30;2.33;;;0.90;;
45392;SDS011;31129;44.810;10.334;2023-04-25T18:09:42;1.30;;;0.73;;